JST656 YBBN-YSCB
Flight info
| Callsign | JST656 |
|---|---|
| Flight time | 1h 23m |
| Altitude | 34000 |
| Route | BN H91 ADMAR Q78 OLTIN/N0438F350 H201 TESAT/N0445F360 H65 CB |
| Aircraft | A320/M-SDE3FGHIRWY/LB1 |
Departure
| Time | 2026-05-06 18:36 |
|---|---|
| Airport | Brisbane International Airport (YBBN) |
Arrival
| Time | 2026-05-06 19:59 |
|---|---|
| Airport | Canberra Airport (YSCB) |
| Time | Latitude | Longitude | Altitude | Speed | Heading |
|---|---|---|---|---|---|
| 2026-05-06 18:14 | -27.38680 | 153.12220 | 18 ft | 0 kts | 322° |
| 2026-05-06 18:29 | -27.38684 | 153.12223 | 18 ft | 4 kts | 322° |
| 2026-05-06 18:29 | -27.38706 | 153.12241 | 20 ft | 4 kts | 329° |
| 2026-05-06 18:30 | -27.38729 | 153.12253 | 19 ft | 4 kts | 1° |
| 2026-05-06 18:30 | -27.38736 | 153.12254 | 19 ft | 4 kts | 27° |
| 2026-05-06 18:30 | -27.38715 | 153.12265 | 19 ft | 1 kts | 27° |
| 2026-05-06 18:33 | -27.38704 | 153.12272 | 18 ft | 5 kts | 27° |
| 2026-05-06 18:33 | -27.38678 | 153.12308 | 20 ft | 7 kts | 77° |
| 2026-05-06 18:33 | -27.38657 | 153.12384 | 19 ft | 16 kts | 33° |
| 2026-05-06 18:34 | -27.38549 | 153.12445 | 18 ft | 18 kts | 27° |
| 2026-05-06 18:34 | -27.38429 | 153.12514 | 19 ft | 20 kts | 26° |
| 2026-05-06 18:34 | -27.38389 | 153.12643 | 19 ft | 20 kts | 107° |
| 2026-05-06 18:34 | -27.38452 | 153.12776 | 22 ft | 19 kts | 130° |
| 2026-05-06 18:35 | -27.38576 | 153.12795 | 23 ft | 27 kts | 204° |
| 2026-05-06 18:35 | -27.38969 | 153.12572 | 20 ft | 96 kts | 207° |
| 2026-05-06 18:35 | -27.39726 | 153.12141 | 27 ft | 145 kts | 207° |
| 2026-05-06 18:35 | -27.40683 | 153.11594 | 461 ft | 154 kts | 207° |
| 2026-05-06 18:36 | -27.41643 | 153.11045 | 1075 ft | 156 kts | 207° |
| 2026-05-06 18:36 | -27.42710 | 153.10803 | 1630 ft | 163 kts | 171° |
| 2026-05-06 18:36 | -27.43800 | 153.11331 | 1983 ft | 182 kts | 152° |
| 2026-05-06 18:36 | -27.44978 | 153.12063 | 2229 ft | 205 kts | 152° |
| 2026-05-06 18:37 | -27.46292 | 153.12874 | 2521 ft | 224 kts | 152° |
| 2026-05-06 18:37 | -27.47705 | 153.13742 | 3081 ft | 235 kts | 152° |
| 2026-05-06 18:37 | -27.49169 | 153.14553 | 3878 ft | 237 kts | 164° |
| 2026-05-06 18:37 | -27.50797 | 153.14716 | 4514 ft | 248 kts | 190° |
| 2026-05-06 18:38 | -27.52558 | 153.14306 | 5010 ft | 265 kts | 194° |
| 2026-05-06 18:38 | -27.54381 | 153.13837 | 5818 ft | 271 kts | 195° |
| 2026-05-06 18:38 | -27.56213 | 153.13286 | 6650 ft | 274 kts | 202° |
| 2026-05-06 18:38 | -27.58020 | 153.12554 | 7470 ft | 277 kts | 202° |
| 2026-05-06 18:39 | -27.59854 | 153.11823 | 8284 ft | 281 kts | 201° |
| 2026-05-06 18:39 | -27.61713 | 153.11091 | 9099 ft | 285 kts | 201° |
| 2026-05-06 18:39 | -27.63616 | 153.10403 | 9921 ft | 289 kts | 200° |
| 2026-05-06 18:40 | -27.67686 | 153.09051 | 10627 ft | 327 kts | 199° |
| 2026-05-06 18:40 | -27.69915 | 153.08325 | 11074 ft | 338 kts | 199° |
| 2026-05-06 18:40 | -27.72197 | 153.07581 | 11715 ft | 344 kts | 199° |
| 2026-05-06 18:40 | -27.74513 | 153.06824 | 12384 ft | 348 kts | 200° |
| 2026-05-06 18:41 | -27.76853 | 153.06051 | 13030 ft | 353 kts | 200° |
| 2026-05-06 18:41 | -27.79222 | 153.05260 | 13672 ft | 357 kts | 200° |
| 2026-05-06 18:41 | -27.81622 | 153.04451 | 14256 ft | 361 kts | 201° |
| 2026-05-06 18:41 | -27.84014 | 153.03542 | 14826 ft | 363 kts | 204° |
| 2026-05-06 18:42 | -27.86385 | 153.02530 | 15410 ft | 366 kts | 206° |
| 2026-05-06 18:42 | -27.88726 | 153.01474 | 15985 ft | 368 kts | 207° |
| 2026-05-06 18:42 | -27.91113 | 153.00380 | 16567 ft | 371 kts | 207° |
| 2026-05-06 18:42 | -27.93521 | 152.99283 | 17150 ft | 374 kts | 207° |
| 2026-05-06 18:43 | -27.95954 | 152.98190 | 17736 ft | 378 kts | 207° |
| 2026-05-06 18:43 | -27.98414 | 152.97101 | 18313 ft | 381 kts | 207° |
| 2026-05-06 18:43 | -28.00899 | 152.96012 | 18811 ft | 384 kts | 207° |
| 2026-05-06 18:43 | -28.03403 | 152.94921 | 19322 ft | 387 kts | 207° |
| 2026-05-06 18:44 | -28.05923 | 152.93821 | 19853 ft | 390 kts | 208° |
| 2026-05-06 18:44 | -28.08457 | 152.92710 | 20375 ft | 392 kts | 208° |
| 2026-05-06 18:44 | -28.11014 | 152.91584 | 20893 ft | 395 kts | 208° |
| 2026-05-06 18:44 | -28.13585 | 152.90444 | 21370 ft | 398 kts | 209° |
| 2026-05-06 18:45 | -28.16164 | 152.89295 | 21848 ft | 400 kts | 209° |
| 2026-05-06 18:45 | -28.18767 | 152.88133 | 22336 ft | 403 kts | 210° |
| 2026-05-06 18:45 | -28.21352 | 152.86978 | 22806 ft | 405 kts | 210° |
| 2026-05-06 18:45 | -28.23132 | 152.86184 | 23116 ft | 407 kts | 210° |
| 2026-05-06 18:46 | -28.26641 | 152.84620 | 23714 ft | 411 kts | 210° |
| 2026-05-06 18:46 | -28.29311 | 152.83430 | 24116 ft | 413 kts | 211° |
| 2026-05-06 18:46 | -28.31990 | 152.82239 | 24541 ft | 415 kts | 211° |
| 2026-05-06 18:46 | -28.34681 | 152.81044 | 24972 ft | 416 kts | 211° |
| 2026-05-06 18:47 | -28.37387 | 152.79841 | 25410 ft | 418 kts | 211° |
| 2026-05-06 18:47 | -28.40097 | 152.78633 | 25789 ft | 419 kts | 211° |
| 2026-05-06 18:47 | -28.42818 | 152.77416 | 26153 ft | 421 kts | 212° |
| 2026-05-06 18:47 | -28.45549 | 152.76193 | 26539 ft | 422 kts | 212° |
| 2026-05-06 18:48 | -28.48287 | 152.74966 | 26924 ft | 424 kts | 212° |
| 2026-05-06 18:48 | -28.51036 | 152.73733 | 27295 ft | 426 kts | 212° |
| 2026-05-06 18:48 | -28.53804 | 152.72493 | 27647 ft | 428 kts | 212° |
| 2026-05-06 18:48 | -28.56579 | 152.71248 | 28033 ft | 430 kts | 213° |
| 2026-05-06 18:49 | -28.59337 | 152.70010 | 28472 ft | 432 kts | 213° |
| 2026-05-06 18:49 | -28.62139 | 152.68752 | 28812 ft | 435 kts | 212° |
| 2026-05-06 18:49 | -28.64968 | 152.67482 | 29163 ft | 438 kts | 212° |
| 2026-05-06 18:49 | -28.67811 | 152.66204 | 29509 ft | 440 kts | 212° |
| 2026-05-06 18:50 | -28.70671 | 152.64915 | 29863 ft | 442 kts | 212° |
| 2026-05-06 18:50 | -28.73539 | 152.63624 | 30197 ft | 445 kts | 212° |
| 2026-05-06 18:50 | -28.76421 | 152.62329 | 30543 ft | 445 kts | 212° |
| 2026-05-06 18:50 | -28.79303 | 152.61039 | 31006 ft | 443 kts | 213° |
| 2026-05-06 18:51 | -28.82166 | 152.59759 | 31472 ft | 441 kts | 213° |
| 2026-05-06 18:51 | -28.84994 | 152.58458 | 31951 ft | 434 kts | 217° |
| 2026-05-06 18:51 | -28.87665 | 152.56907 | 32394 ft | 428 kts | 219° |
| 2026-05-06 18:51 | -28.90261 | 152.55363 | 32870 ft | 425 kts | 220° |
| 2026-05-06 18:52 | -28.92878 | 152.53802 | 33356 ft | 423 kts | 220° |
| 2026-05-06 18:52 | -28.95480 | 152.52252 | 33872 ft | 421 kts | 220° |
| 2026-05-06 18:52 | -28.98075 | 152.50707 | 34039 ft | 420 kts | 220° |
| 2026-05-06 18:53 | -29.03256 | 152.47623 | 34069 ft | 419 kts | 221° |
| 2026-05-06 18:53 | -29.08415 | 152.44540 | 34067 ft | 418 kts | 220° |
| 2026-05-06 18:54 | -29.13580 | 152.41446 | 34065 ft | 419 kts | 220° |
| 2026-05-06 18:54 | -29.18752 | 152.38355 | 34068 ft | 419 kts | 220° |
| 2026-05-06 18:55 | -29.23929 | 152.35271 | 34066 ft | 419 kts | 220° |
| 2026-05-06 18:55 | -29.29062 | 152.32194 | 34105 ft | 419 kts | 220° |
| 2026-05-06 18:56 | -29.34261 | 152.29074 | 34083 ft | 419 kts | 220° |
| 2026-05-06 18:56 | -29.39444 | 152.25962 | 34078 ft | 421 kts | 220° |
| 2026-05-06 18:57 | -29.44596 | 152.22860 | 34080 ft | 421 kts | 220° |
| 2026-05-06 18:57 | -29.49790 | 152.19741 | 34069 ft | 421 kts | 220° |
| 2026-05-06 18:58 | -29.54112 | 152.17141 | 34097 ft | 422 kts | 219° |
| 2026-05-06 18:58 | -29.59322 | 152.13998 | 34092 ft | 423 kts | 219° |
| 2026-05-06 18:59 | -29.64545 | 152.10840 | 34091 ft | 424 kts | 219° |
| 2026-05-06 18:59 | -29.69821 | 152.07765 | 34090 ft | 433 kts | 213° |
| 2026-05-06 18:59 | -29.72758 | 152.06764 | 34091 ft | 447 kts | 204° |
| 2026-05-06 19:00 | -29.75799 | 152.05978 | 34126 ft | 448 kts | 204° |
| 2026-05-06 19:00 | -29.81886 | 152.04399 | 34111 ft | 448 kts | 204° |
| 2026-05-06 19:01 | -29.87975 | 152.02813 | 34107 ft | 449 kts | 204° |
| 2026-05-06 19:01 | -29.94070 | 152.01218 | 34102 ft | 449 kts | 204° |
| 2026-05-06 19:02 | -30.00165 | 151.99632 | 34125 ft | 449 kts | 203° |
| 2026-05-06 19:02 | -30.06218 | 151.98053 | 34116 ft | 448 kts | 203° |
| 2026-05-06 19:03 | -30.12315 | 151.96446 | 34103 ft | 449 kts | 203° |
| 2026-05-06 19:03 | -30.18400 | 151.94837 | 34102 ft | 448 kts | 203° |
| 2026-05-06 19:04 | -30.24486 | 151.93241 | 34109 ft | 448 kts | 203° |
| 2026-05-06 19:04 | -30.30569 | 151.91640 | 34110 ft | 448 kts | 203° |
| 2026-05-06 19:05 | -30.36664 | 151.90049 | 34101 ft | 449 kts | 202° |
| 2026-05-06 19:05 | -30.42773 | 151.88504 | 34104 ft | 450 kts | 202° |
| 2026-05-06 19:06 | -30.48899 | 151.86965 | 34127 ft | 450 kts | 201° |
| 2026-05-06 19:06 | -30.55004 | 151.85413 | 34117 ft | 449 kts | 201° |
| 2026-05-06 19:07 | -30.61112 | 151.83847 | 34114 ft | 449 kts | 201° |
| 2026-05-06 19:07 | -30.67215 | 151.82287 | 34100 ft | 449 kts | 201° |
| 2026-05-06 19:08 | -30.73312 | 151.80724 | 34127 ft | 449 kts | 200° |
| 2026-05-06 19:08 | -30.79387 | 151.79175 | 34116 ft | 449 kts | 200° |
| 2026-05-06 19:09 | -30.85502 | 151.77616 | 34106 ft | 449 kts | 200° |
| 2026-05-06 19:09 | -30.91620 | 151.76046 | 34104 ft | 449 kts | 200° |
| 2026-05-06 19:10 | -30.97699 | 151.74481 | 34124 ft | 450 kts | 200° |
| 2026-05-06 19:10 | -31.03810 | 151.72907 | 34119 ft | 450 kts | 200° |
| 2026-05-06 19:11 | -31.09926 | 151.71328 | 34111 ft | 450 kts | 200° |
| 2026-05-06 19:11 | -31.16039 | 151.69753 | 34132 ft | 450 kts | 200° |
| 2026-05-06 19:12 | -31.22115 | 151.68185 | 34125 ft | 450 kts | 200° |
| 2026-05-06 19:12 | -31.28228 | 151.66596 | 34113 ft | 450 kts | 200° |
| 2026-05-06 19:13 | -31.34351 | 151.65007 | 34097 ft | 451 kts | 200° |
| 2026-05-06 19:13 | -31.40480 | 151.63421 | 34120 ft | 451 kts | 200° |
| 2026-05-06 19:14 | -31.46614 | 151.61836 | 34089 ft | 451 kts | 200° |
| 2026-05-06 19:14 | -31.52747 | 151.60248 | 34081 ft | 451 kts | 200° |
| 2026-05-06 19:15 | -31.58846 | 151.58662 | 34075 ft | 451 kts | 200° |
| 2026-05-06 19:15 | -31.64978 | 151.57058 | 34121 ft | 451 kts | 201° |
| 2026-05-06 19:16 | -31.71108 | 151.55445 | 34098 ft | 451 kts | 201° |
| 2026-05-06 19:16 | -31.77245 | 151.53833 | 34080 ft | 451 kts | 201° |
| 2026-05-06 19:17 | -31.83329 | 151.52084 | 34078 ft | 448 kts | 204° |
| 2026-05-06 19:17 | -31.89229 | 151.49931 | 34093 ft | 446 kts | 207° |
| 2026-05-06 19:18 | -31.95133 | 151.47655 | 34067 ft | 446 kts | 207° |
| 2026-05-06 19:18 | -32.01055 | 151.45452 | 34064 ft | 447 kts | 206° |
| 2026-05-06 19:19 | -32.07007 | 151.43307 | 34097 ft | 448 kts | 206° |
| 2026-05-06 19:19 | -32.12987 | 151.41165 | 34083 ft | 448 kts | 206° |
| 2026-05-06 19:20 | -32.18950 | 151.39003 | 34073 ft | 448 kts | 206° |
| 2026-05-06 19:20 | -32.24861 | 151.36847 | 34062 ft | 447 kts | 206° |
| 2026-05-06 19:21 | -32.30809 | 151.34675 | 34088 ft | 448 kts | 206° |
| 2026-05-06 19:21 | -32.36763 | 151.32503 | 34065 ft | 448 kts | 206° |
| 2026-05-06 19:22 | -32.42711 | 151.30326 | 34062 ft | 447 kts | 206° |
| 2026-05-06 19:22 | -32.48665 | 151.28144 | 34056 ft | 447 kts | 206° |
| 2026-05-06 19:23 | -32.54647 | 151.26057 | 34044 ft | 454 kts | 200° |
| 2026-05-06 19:23 | -32.57819 | 151.25598 | 34046 ft | 465 kts | 191° |
| 2026-05-06 19:23 | -32.61066 | 151.25444 | 34038 ft | 465 kts | 191° |
| 2026-05-06 19:24 | -32.67539 | 151.25105 | 34046 ft | 465 kts | 191° |
| 2026-05-06 19:24 | -32.74011 | 151.24752 | 34075 ft | 465 kts | 191° |
| 2026-05-06 19:25 | -32.80483 | 151.24400 | 34060 ft | 466 kts | 191° |
| 2026-05-06 19:25 | -32.86955 | 151.24043 | 34048 ft | 465 kts | 192° |
| 2026-05-06 19:26 | -32.93430 | 151.23686 | 34036 ft | 465 kts | 191° |
| 2026-05-06 19:26 | -32.99870 | 151.23340 | 34058 ft | 466 kts | 191° |
| 2026-05-06 19:27 | -33.06347 | 151.22990 | 34044 ft | 466 kts | 192° |
| 2026-05-06 19:27 | -33.12837 | 151.22637 | 34035 ft | 466 kts | 192° |
| 2026-05-06 19:28 | -33.19312 | 151.22284 | 34032 ft | 466 kts | 192° |
| 2026-05-06 19:28 | -33.25793 | 151.21929 | 34050 ft | 466 kts | 192° |
| 2026-05-06 19:29 | -33.32287 | 151.21577 | 34035 ft | 469 kts | 192° |
| 2026-05-06 19:29 | -33.38937 | 151.21193 | 34017 ft | 488 kts | 192° |
| 2026-05-06 19:30 | -33.45780 | 151.20818 | 34021 ft | 495 kts | 191° |
| 2026-05-06 19:30 | -33.52674 | 151.20478 | 34018 ft | 496 kts | 191° |
| 2026-05-06 19:31 | -33.59578 | 151.20125 | 34013 ft | 496 kts | 191° |
| 2026-05-06 19:31 | -33.69889 | 151.19577 | 34046 ft | 496 kts | 192° |
| 2026-05-06 19:32 | -33.76795 | 151.19208 | 34024 ft | 496 kts | 192° |
| 2026-05-06 19:32 | -33.83697 | 151.18832 | 34010 ft | 496 kts | 192° |
| 2026-05-06 19:33 | -33.90593 | 151.18444 | 34029 ft | 494 kts | 194° |
| 2026-05-06 19:33 | -33.93931 | 151.17803 | 34020 ft | 479 kts | 205° |
| 2026-05-06 19:33 | -33.97046 | 151.16532 | 34010 ft | 465 kts | 214° |
| 2026-05-06 19:34 | -34.02713 | 151.12976 | 34000 ft | 458 kts | 218° |
| 2026-05-06 19:34 | -34.08333 | 151.09410 | 33988 ft | 459 kts | 218° |
| 2026-05-06 19:35 | -34.14010 | 151.05828 | 34021 ft | 460 kts | 218° |
| 2026-05-06 19:35 | -34.19668 | 151.02231 | 34029 ft | 459 kts | 219° |
| 2026-05-06 19:36 | -34.25310 | 150.98632 | 34016 ft | 458 kts | 219° |
| 2026-05-06 19:36 | -34.30934 | 150.95040 | 34024 ft | 457 kts | 219° |
| 2026-05-06 19:37 | -34.36541 | 150.91458 | 33991 ft | 454 kts | 219° |
| 2026-05-06 19:37 | -34.41187 | 150.88481 | 33981 ft | 454 kts | 219° |
| 2026-05-06 19:38 | -34.47692 | 150.84309 | 33986 ft | 455 kts | 219° |
| 2026-05-06 19:38 | -34.53273 | 150.80691 | 33990 ft | 450 kts | 223° |
| 2026-05-06 19:39 | -34.55747 | 150.78500 | 33984 ft | 432 kts | 234° |
| 2026-05-06 19:39 | -34.57778 | 150.75887 | 33709 ft | 417 kts | 244° |
| 2026-05-06 19:39 | -34.59475 | 150.73055 | 33412 ft | 415 kts | 244° |
| 2026-05-06 19:39 | -34.61170 | 150.70204 | 33057 ft | 417 kts | 244° |
| 2026-05-06 19:40 | -34.62877 | 150.67349 | 32555 ft | 419 kts | 244° |
| 2026-05-06 19:40 | -34.64601 | 150.64484 | 32068 ft | 422 kts | 243° |
| 2026-05-06 19:40 | -34.66342 | 150.61601 | 31577 ft | 424 kts | 243° |
| 2026-05-06 19:40 | -34.68091 | 150.58699 | 31078 ft | 427 kts | 243° |
| 2026-05-06 19:41 | -34.69847 | 150.55774 | 30564 ft | 430 kts | 243° |
| 2026-05-06 19:41 | -34.71012 | 150.53825 | 30226 ft | 432 kts | 243° |
| 2026-05-06 19:41 | -34.72786 | 150.50858 | 29680 ft | 435 kts | 242° |
| 2026-05-06 19:41 | -34.74572 | 150.47875 | 29168 ft | 437 kts | 242° |
| 2026-05-06 19:42 | -34.76373 | 150.44872 | 28644 ft | 440 kts | 242° |
| 2026-05-06 19:42 | -34.78186 | 150.41849 | 28147 ft | 443 kts | 242° |
| 2026-05-06 19:42 | -34.80009 | 150.38805 | 27656 ft | 446 kts | 241° |
| 2026-05-06 19:42 | -34.81840 | 150.35744 | 27159 ft | 449 kts | 241° |
| 2026-05-06 19:43 | -34.83683 | 150.32659 | 26652 ft | 452 kts | 241° |
| 2026-05-06 19:43 | -34.85536 | 150.29558 | 26163 ft | 454 kts | 241° |
| 2026-05-06 19:43 | -34.87398 | 150.26440 | 25683 ft | 454 kts | 240° |
| 2026-05-06 19:43 | -34.89247 | 150.23337 | 25186 ft | 452 kts | 240° |
| 2026-05-06 19:44 | -34.91091 | 150.20240 | 24696 ft | 449 kts | 240° |
| 2026-05-06 19:44 | -34.92920 | 150.17165 | 24213 ft | 447 kts | 240° |
| 2026-05-06 19:44 | -34.94740 | 150.14101 | 23703 ft | 445 kts | 240° |
| 2026-05-06 19:44 | -34.96521 | 150.11093 | 23159 ft | 442 kts | 240° |
| 2026-05-06 19:45 | -34.98315 | 150.08056 | 22635 ft | 439 kts | 240° |
| 2026-05-06 19:45 | -35.00097 | 150.05044 | 22123 ft | 440 kts | 240° |
| 2026-05-06 19:45 | -35.01900 | 150.01990 | 21579 ft | 445 kts | 240° |
| 2026-05-06 19:45 | -35.03715 | 149.98912 | 21018 ft | 446 kts | 240° |
| 2026-05-06 19:46 | -35.05562 | 149.95882 | 20379 ft | 446 kts | 236° |
| 2026-05-06 19:46 | -35.07636 | 149.93072 | 19636 ft | 443 kts | 233° |
| 2026-05-06 19:46 | -35.09734 | 149.90343 | 18912 ft | 435 kts | 233° |
| 2026-05-06 19:46 | -35.11782 | 149.87753 | 18767 ft | 411 kts | 232° |
| 2026-05-06 19:47 | -35.13712 | 149.85340 | 18504 ft | 385 kts | 233° |
| 2026-05-06 19:47 | -35.15528 | 149.83061 | 17988 ft | 363 kts | 234° |
| 2026-05-06 19:47 | -35.17229 | 149.80899 | 17461 ft | 344 kts | 234° |
| 2026-05-06 19:47 | -35.18838 | 149.78831 | 16941 ft | 328 kts | 235° |
| 2026-05-06 19:48 | -35.20368 | 149.76850 | 16425 ft | 314 kts | 236° |
| 2026-05-06 19:48 | -35.21846 | 149.74923 | 15922 ft | 308 kts | 236° |
| 2026-05-06 19:48 | -35.23296 | 149.73021 | 15425 ft | 304 kts | 236° |
| 2026-05-06 19:48 | -35.24731 | 149.71139 | 14903 ft | 301 kts | 236° |
| 2026-05-06 19:49 | -35.26152 | 149.69278 | 14219 ft | 298 kts | 236° |
| 2026-05-06 19:49 | -35.27571 | 149.67424 | 13700 ft | 300 kts | 236° |
| 2026-05-06 19:49 | -35.29007 | 149.65548 | 13053 ft | 304 kts | 235° |
| 2026-05-06 19:49 | -35.30465 | 149.63645 | 12399 ft | 307 kts | 235° |
| 2026-05-06 19:50 | -35.31933 | 149.61734 | 11749 ft | 305 kts | 234° |
| 2026-05-06 19:50 | -35.33370 | 149.59875 | 11131 ft | 296 kts | 234° |
| 2026-05-06 19:50 | -35.34750 | 149.58091 | 10523 ft | 288 kts | 234° |
| 2026-05-06 19:50 | -35.36107 | 149.56331 | 9924 ft | 281 kts | 234° |
| 2026-05-06 19:51 | -35.37434 | 149.54602 | 9255 ft | 276 kts | 234° |
| 2026-05-06 19:51 | -35.38740 | 149.52896 | 8587 ft | 273 kts | 234° |
| 2026-05-06 19:51 | -35.40030 | 149.51210 | 7939 ft | 269 kts | 233° |
| 2026-05-06 19:51 | -35.41301 | 149.49545 | 7296 ft | 266 kts | 233° |
| 2026-05-06 19:52 | -35.42555 | 149.47908 | 6683 ft | 261 kts | 233° |
| 2026-05-06 19:52 | -35.43780 | 149.46312 | 6319 ft | 249 kts | 233° |
| 2026-05-06 19:52 | -35.44953 | 149.44789 | 6201 ft | 244 kts | 233° |
| 2026-05-06 19:52 | -35.45930 | 149.43105 | 6071 ft | 241 kts | 248° |
| 2026-05-06 19:53 | -35.46453 | 149.41178 | 5935 ft | 238 kts | 263° |
| 2026-05-06 19:53 | -35.46532 | 149.39164 | 5805 ft | 237 kts | 272° |
| 2026-05-06 19:53 | -35.46515 | 149.37141 | 5675 ft | 237 kts | 271° |
| 2026-05-06 19:53 | -35.46504 | 149.35117 | 5541 ft | 238 kts | 271° |
| 2026-05-06 19:54 | -35.46493 | 149.33099 | 5417 ft | 232 kts | 271° |
| 2026-05-06 19:54 | -35.46484 | 149.31147 | 5286 ft | 225 kts | 271° |
| 2026-05-06 19:54 | -35.46477 | 149.29267 | 5179 ft | 216 kts | 272° |
| 2026-05-06 19:54 | -35.46465 | 149.27451 | 5086 ft | 209 kts | 272° |
| 2026-05-06 19:55 | -35.46457 | 149.25723 | 5084 ft | 197 kts | 271° |
| 2026-05-06 19:55 | -35.46469 | 149.24067 | 5075 ft | 193 kts | 272° |
| 2026-05-06 19:55 | -35.46247 | 149.22462 | 4803 ft | 194 kts | 290° |
| 2026-05-06 19:55 | -35.45578 | 149.21059 | 4643 ft | 189 kts | 308° |
| 2026-05-06 19:56 | -35.44586 | 149.20055 | 4480 ft | 182 kts | 326° |
| 2026-05-06 19:56 | -35.43438 | 149.19535 | 4303 ft | 172 kts | 343° |
| 2026-05-06 19:56 | -35.42265 | 149.19449 | 4078 ft | 166 kts | 353° |
| 2026-05-06 19:56 | -35.41127 | 149.19448 | 3863 ft | 162 kts | 353° |
| 2026-05-06 19:57 | -35.40011 | 149.19447 | 3651 ft | 159 kts | 354° |
| 2026-05-06 19:57 | -35.38967 | 149.19448 | 3394 ft | 142 kts | 355° |
| 2026-05-06 19:57 | -35.38002 | 149.19447 | 3179 ft | 138 kts | 356° |
| 2026-05-06 19:57 | -35.37053 | 149.19446 | 3018 ft | 135 kts | 353° |
| 2026-05-06 19:58 | -35.36120 | 149.19451 | 2848 ft | 133 kts | 353° |
| 2026-05-06 19:58 | -35.35195 | 149.19461 | 2668 ft | 135 kts | 354° |
| 2026-05-06 19:58 | -35.34268 | 149.19443 | 2449 ft | 137 kts | 357° |
| 2026-05-06 19:58 | -35.33337 | 149.19439 | 2270 ft | 134 kts | 357° |
| 2026-05-06 19:59 | -35.32409 | 149.19448 | 2092 ft | 132 kts | 357° |
| 2026-05-06 19:59 | -35.31491 | 149.19445 | 1931 ft | 132 kts | 358° |
| 2026-05-06 19:59 | -35.30641 | 149.19443 | 1880 ft | 106 kts | 359° |
| 2026-05-06 19:59 | -35.30211 | 149.19442 | 1879 ft | 17 kts | 353° |
| 2026-05-06 20:00 | -35.30160 | 149.19332 | 1877 ft | 16 kts | 291° |
| 2026-05-06 20:00 | -35.30212 | 149.19241 | 1880 ft | 16 kts | 182° |
| 2026-05-06 20:00 | -35.30330 | 149.19239 | 1880 ft | 18 kts | 180° |
| 2026-05-06 20:00 | -35.30461 | 149.19239 | 1880 ft | 20 kts | 180° |
| 2026-05-06 20:01 | -35.30604 | 149.19238 | 1880 ft | 21 kts | 181° |
| 2026-05-06 20:01 | -35.30727 | 149.19238 | 1880 ft | 8 kts | 179° |
| 2026-05-06 20:01 | -35.30749 | 149.19186 | 1880 ft | 8 kts | 259° |
| 2026-05-06 20:01 | -35.30756 | 149.19141 | 1880 ft | 1 kts | 258° |
| 2026-05-06 20:02 | -35.30756 | 149.19140 | 1880 ft | 0 kts | 258° |